Time;durP1;ratioP1;P1;durP2;ratioP2;P2;SDS_P1;SDS_P2;PMS_P1;PMS_P2;Temp;Humidity;BMP_temperature;BMP_pressure;BME280_temperature;BME280_humidity;BME280_pressure;Samples;Min_cycle;Max_cycle;Signal;HPM_P1;HPM_P2
2023/01/28 00:00:27;;;;;;;2.90;1.87;;;;;;;;;;5014886;28;20591;-52
2023/01/28 00:02:53;;;;;;;2.13;1.73;;;;;;;;;;5014887;28;20205;-52
2023/01/28 00:05:19;;;;;;;3.33;1.83;;;;;;;;;;5015102;28;20194;-52
2023/01/28 00:07:48;;;;;;;2.20;1.70;;;;;;;;;;5015111;28;20255;-53
2023/01/28 00:10:14;;;;;;;2.00;1.80;;;;;;;;;;5015059;28;20951;-55
2023/01/28 00:12:40;;;;;;;2.73;1.80;;;;;;;;;;5015106;28;20444;-53
2023/01/28 00:15:07;;;;;;;8.00;3.80;;;;;;;;;;5015138;28;20448;-53
2023/01/28 00:17:33;;;;;;;4.87;3.40;;;;;;;;;;5014793;28;20260;-52
2023/01/28 00:19:59;;;;;;;6.43;3.17;;;;;;;;;;5015205;28;20441;-51
2023/01/28 00:22:25;;;;;;;4.07;2.20;;;;;;;;;;5014705;28;20197;-52
2023/01/28 00:24:52;;;;;;;2.27;2.07;;;;;;;;;;5014760;28;20660;-52
2023/01/28 00:27:18;;;;;;;2.07;1.80;;;;;;;;;;5014662;28;20459;-51
2023/01/28 00:29:44;;;;;;;3.80;2.20;;;;;;;;;;5015037;28;20459;-51
2023/01/28 00:32:10;;;;;;;3.20;1.97;;;;;;;;;;5014498;28;20910;-53
2023/01/28 00:34:36;;;;;;;3.33;2.10;;;;;;;;;;5014303;28;20263;-51
2023/01/28 00:37:02;;;;;;;3.10;1.60;;;;;;;;;;5014592;28;20197;-52
2023/01/28 00:39:28;;;;;;;2.37;1.90;;;;;;;;;;5014118;28;20609;-51
2023/01/28 00:41:55;;;;;;;3.33;1.93;;;;;;;;;;5014431;28;20653;-51
2023/01/28 00:44:21;;;;;;;2.20;1.80;;;;;;;;;;5014302;28;20480;-51
2023/01/28 00:46:47;;;;;;;3.13;1.90;;;;;;;;;;5027523;28;20502;-51
2023/01/28 00:49:13;;;;;;;2.87;2.40;;;;;;;;;;5034253;28;20435;-49
2023/01/28 00:51:39;;;;;;;3.90;2.20;;;;;;;;;;5034256;28;20501;-51
2023/01/28 00:54:05;;;;;;;2.33;2.07;;;;;;;;;;5034127;28;20295;-53
2023/01/28 00:56:31;;;;;;;2.00;1.90;;;;;;;;;;5033736;28;20629;-50
2023/01/28 00:58:59;;;;;;;3.67;2.20;;;;;;;;;;5034058;28;20469;-50
2023/01/28 01:01:26;;;;;;;2.83;2.13;;;;;;;;;;5033121;28;20225;-50
2023/01/28 01:04:01;;;;;;;2.73;2.00;;;;;;;;;;5033841;28;20470;-50
2023/01/28 01:06:28;;;;;;;2.93;2.20;;;;;;;;;;5033799;28;20449;-50
2023/01/28 01:08:54;;;;;;;2.37;1.90;;;;;;;;;;5014710;28;20440;-52
2023/01/28 01:11:20;;;;;;;1.90;1.80;;;;;;;;;;5012134;28;20424;-52
2023/01/28 01:13:50;;;;;;;2.03;1.83;;;;;;;;;;5014027;28;20794;-51
2023/01/28 01:16:17;;;;;;;3.30;1.90;;;;;;;;;;5013708;28;20201;-50
2023/01/28 01:18:43;;;;;;;2.73;2.00;;;;;;;;;;5014019;28;20455;-52
2023/01/28 01:21:10;;;;;;;1.93;1.70;;;;;;;;;;5013682;28;20892;-52
2023/01/28 01:23:36;;;;;;;4.10;2.00;;;;;;;;;;5013731;28;20463;-51
2023/01/28 01:26:02;;;;;;;2.20;2.00;;;;;;;;;;5013692;28;20943;-51
2023/01/28 01:28:28;;;;;;;3.10;1.70;;;;;;;;;;5013788;28;20201;-50
2023/01/28 01:30:59;;;;;;;4.50;1.93;;;;;;;;;;5013706;28;20445;-51
2023/01/28 01:33:27;;;;;;;2.77;1.80;;;;;;;;;;5013650;28;20198;-50
2023/01/28 01:35:53;;;;;;;2.07;1.60;;;;;;;;;;5013501;28;20448;-50
2023/01/28 01:38:19;;;;;;;2.30;2.03;;;;;;;;;;5013479;28;20433;-50
2023/01/28 01:40:45;;;;;;;3.03;2.03;;;;;;;;;;5013596;28;20515;-50
2023/01/28 01:43:16;;;;;;;2.37;2.17;;;;;;;;;;5013564;28;20202;-50
2023/01/28 01:45:42;;;;;;;1.87;1.77;;;;;;;;;;5013492;28;20624;-50
2023/01/28 01:48:13;;;;;;;2.40;1.77;;;;;;;;;;5013410;28;20844;-50
2023/01/28 01:50:54;;;;;;;2.37;2.07;;;;;;;;;;5013284;28;20944;-50
2023/01/28 01:53:22;;;;;;;2.50;2.03;;;;;;;;;;5013191;28;20931;-50
2023/01/28 01:55:49;;;;;;;2.73;1.70;;;;;;;;;;5013125;28;21005;-50
2023/01/28 01:58:18;;;;;;;2.37;1.80;;;;;;;;;;5013285;28;20448;-51
2023/01/28 02:00:44;;;;;;;2.10;1.90;;;;;;;;;;5013067;28;20499;-50
2023/01/28 02:03:10;;;;;;;2.50;1.87;;;;;;;;;;5013333;28;20428;-51
2023/01/28 02:05:36;;;;;;;3.23;1.93;;;;;;;;;;5012950;28;20573;-51
2023/01/28 02:08:24;;;;;;;2.80;1.93;;;;;;;;;;5013072;28;20445;-51
2023/01/28 02:10:52;;;;;;;2.07;1.70;;;;;;;;;;5012981;28;21036;-50
2023/01/28 02:13:19;;;;;;;2.30;1.73;;;;;;;;;;5011891;28;20953;-50
2023/01/28 02:15:45;;;;;;;2.10;1.90;;;;;;;;;;5013159;28;20523;-51
2023/01/28 02:18:11;;;;;;;1.70;1.60;;;;;;;;;;5012857;28;20444;-51
2023/01/28 02:20:45;;;;;;;1.80;1.70;;;;;;;;;;5012782;28;20551;-51
2023/01/28 02:23:28;;;;;;;2.23;1.70;;;;;;;;;;5012995;28;20197;-50
2023/01/28 02:26:06;;;;;;;1.80;1.70;;;;;;;;;;5012025;28;20454;-51
2023/01/28 02:28:37;;;;;;;2.97;1.97;;;;;;;;;;5012564;28;20460;-50
2023/01/28 02:31:07;;;;;;;3.17;2.10;;;;;;;;;;5012595;28;20448;-51
2023/01/28 02:33:37;;;;;;;3.33;2.30;;;;;;;;;;5012552;28;20433;-51
2023/01/28 02:36:08;;;;;;;2.87;2.13;;;;;;;;;;5012550;28;20817;-51
2023/01/28 02:38:36;;;;;;;3.27;2.40;;;;;;;;;;5012383;28;20831;-51
2023/01/28 02:41:05;;;;;;;3.50;2.10;;;;;;;;;;5012308;28;20484;-51
2023/01/28 02:43:36;;;;;;;3.27;2.10;;;;;;;;;;5012363;28;20461;-51
2023/01/28 02:49:01;;;;;;;1.90;1.80;;;;;;;;;;4981970;28;20491;-52
2023/01/28 02:51:31;;;;;;;2.47;1.90;;;;;;;;;;5012346;28;20863;-51
2023/01/28 02:54:00;;;;;;;2.23;1.80;;;;;;;;;;5012471;28;20900;-51
2023/01/28 02:56:29;;;;;;;2.63;1.57;;;;;;;;;;5012106;28;20494;-52
2023/01/28 02:58:59;;;;;;;2.33;1.70;;;;;;;;;;5012144;28;20452;-51
2023/01/28 03:01:28;;;;;;;3.13;1.83;;;;;;;;;;5011887;28;20909;-51
2023/01/28 03:03:58;;;;;;;2.33;1.80;;;;;;;;;;5012439;28;20440;-51
2023/01/28 03:06:28;;;;;;;4.57;2.20;;;;;;;;;;5011996;28;20440;-51
2023/01/28 03:36:49;;;;;;;2.40;2.20;;;;;;;;;;5011802;28;20432;-50
2023/01/28 03:39:15;;;;;;;2.60;2.07;;;;;;;;;;5012003;28;20444;-51
2023/01/28 03:41:41;;;;;;;2.17;1.83;;;;;;;;;;5011628;28;20615;-50
2023/01/28 03:46:53;;;;;;;2.40;1.93;;;;;;;;;;5011600;28;20588;-51
2023/01/28 03:49:19;;;;;;;1.97;1.80;;;;;;;;;;5011683;28;20447;-50
2023/01/28 03:51:45;;;;;;;2.33;1.87;;;;;;;;;;5011669;28;20519;-51
2023/01/28 03:54:11;;;;;;;3.23;1.87;;;;;;;;;;5011752;28;20197;-53
2023/01/28 03:56:39;;;;;;;2.10;1.90;;;;;;;;;;5011486;28;20248;-51
2023/01/28 03:59:05;;;;;;;2.20;1.80;;;;;;;;;;5011701;28;20894;-50
2023/01/28 04:01:31;;;;;;;2.50;1.80;;;;;;;;;;5011418;28;21008;-51
2023/01/28 04:03:58;;;;;;;1.70;1.60;;;;;;;;;;5011655;28;20432;-51
2023/01/28 04:06:25;;;;;;;2.27;1.90;;;;;;;;;;5011776;28;20285;-51
2023/01/28 04:08:57;;;;;;;2.83;1.90;;;;;;;;;;5011617;28;20804;-51
2023/01/28 04:11:24;;;;;;;2.17;1.70;;;;;;;;;;5011358;28;20432;-51
2023/01/28 04:13:50;;;;;;;3.90;1.90;;;;;;;;;;5011609;28;20462;-51
2023/01/28 04:16:18;;;;;;;2.83;1.70;;;;;;;;;;5011510;28;20475;-50
2023/01/28 04:18:44;;;;;;;3.97;1.70;;;;;;;;;;5011398;28;20212;-51
2023/01/28 04:21:12;;;;;;;2.00;1.60;;;;;;;;;;5011455;28;20487;-50
2023/01/28 04:23:38;;;;;;;2.13;1.80;;;;;;;;;;5011196;28;20437;-51
2023/01/28 04:26:04;;;;;;;2.37;1.93;;;;;;;;;;5011319;28;20486;-52
2023/01/28 04:28:30;;;;;;;1.57;1.47;;;;;;;;;;5011253;28;20209;-51
2023/01/28 04:30:56;;;;;;;4.30;1.90;;;;;;;;;;5011367;28;20490;-50
2023/01/28 04:33:22;;;;;;;2.50;2.30;;;;;;;;;;5011221;28;20441;-50
2023/01/28 04:35:48;;;;;;;2.40;1.90;;;;;;;;;;5011305;28;20201;-51
2023/01/28 04:38:15;;;;;;;3.10;1.90;;;;;;;;;;5015120;28;20436;-50
2023/01/28 04:40:41;;;;;;;2.87;2.20;;;;;;;;;;5014419;28;20230;-51
2023/01/28 04:43:08;;;;;;;4.80;2.40;;;;;;;;;;5014768;28;20977;-51
2023/01/28 04:45:34;;;;;;;2.00;1.80;;;;;;;;;;5014298;28;20646;-51
2023/01/28 04:48:00;;;;;;;3.43;1.90;;;;;;;;;;5014711;28;20436;-51
2023/01/28 04:50:26;;;;;;;2.10;1.73;;;;;;;;;;5013866;28;20216;-50
2023/01/28 04:52:52;;;;;;;2.37;1.93;;;;;;;;;;5013682;28;20201;-50
2023/01/28 04:55:19;;;;;;;2.20;1.80;;;;;;;;;;5014207;28;20288;-52
2023/01/28 04:57:47;;;;;;;1.70;1.60;;;;;;;;;;5014531;28;20213;-51
2023/01/28 05:00:13;;;;;;;2.43;2.00;;;;;;;;;;5014546;28;20444;-54
2023/01/28 05:02:39;;;;;;;2.40;1.90;;;;;;;;;;5014198;28;20504;-49
2023/01/28 05:05:07;;;;;;;3.63;2.00;;;;;;;;;;5014120;28;20884;-50
2023/01/28 05:07:33;;;;;;;2.60;1.80;;;;;;;;;;5014103;28;20276;-50
2023/01/28 05:09:59;;;;;;;2.73;2.13;;;;;;;;;;5014307;28;20443;-50
2023/01/28 05:12:27;;;;;;;3.53;1.87;;;;;;;;;;5014118;28;20449;-50
2023/01/28 05:14:53;;;;;;;3.43;2.10;;;;;;;;;;5014134;28;20285;-50
2023/01/28 05:17:19;;;;;;;3.70;2.00;;;;;;;;;;5014031;28;20448;-51
2023/01/28 05:19:45;;;;;;;3.80;2.10;;;;;;;;;;5014109;28;20209;-51
2023/01/28 05:22:11;;;;;;;2.30;1.90;;;;;;;;;;5014021;28;20564;-51
2023/01/28 05:24:37;;;;;;;3.70;2.10;;;;;;;;;;5013629;28;20452;-51
2023/01/28 05:27:03;;;;;;;3.10;2.20;;;;;;;;;;5013786;28;20445;-51
2023/01/28 05:29:30;;;;;;;3.07;2.20;;;;;;;;;;5013860;28;20202;-52
2023/01/28 05:31:56;;;;;;;3.00;2.30;;;;;;;;;;5013878;28;20456;-51
2023/01/28 05:34:22;;;;;;;2.30;2.10;;;;;;;;;;5013608;28;20942;-51
2023/01/28 05:36:48;;;;;;;1.83;1.73;;;;;;;;;;5013849;28;20206;-51
2023/01/28 05:39:14;;;;;;;3.93;2.40;;;;;;;;;;5013821;28;20198;-50
2023/01/28 05:41:40;;;;;;;4.23;2.40;;;;;;;;;;5013389;28;20646;-50
2023/01/28 05:44:06;;;;;;;2.57;2.37;;;;;;;;;;5013553;28;20429;-57
2023/01/28 05:46:33;;;;;;;2.77;2.00;;;;;;;;;;5013185;28;20656;-50
2023/01/28 05:48:59;;;;;;;3.30;2.50;;;;;;;;;;5013452;28;20660;-51
2023/01/28 05:51:25;;;;;;;2.87;2.20;;;;;;;;;;5013328;28;20443;-51
2023/01/28 05:53:51;;;;;;;2.20;2.00;;;;;;;;;;5013208;28;20205;-51
2023/01/28 05:56:17;;;;;;;2.40;2.20;;;;;;;;;;5013224;28;20225;-51
2023/01/28 05:58:43;;;;;;;2.93;2.00;;;;;;;;;;5013245;28;20656;-54
2023/01/28 06:01:09;;;;;;;2.63;1.97;;;;;;;;;;5013124;28;20317;-50
2023/01/28 06:03:36;;;;;;;2.77;2.00;;;;;;;;;;5013074;28;20256;-51
2023/01/28 06:06:02;;;;;;;4.20;2.20;;;;;;;;;;5013250;28;20202;-51
2023/01/28 06:08:28;;;;;;;2.80;2.43;;;;;;;;;;5013260;28;20443;-50
2023/01/28 06:10:54;;;;;;;2.07;1.87;;;;;;;;;;5013036;28;20433;-51
2023/01/28 06:13:20;;;;;;;2.90;2.07;;;;;;;;;;5013046;28;20644;-50
2023/01/28 06:15:48;;;;;;;3.40;2.10;;;;;;;;;;5012885;28;20200;-51
2023/01/28 06:18:14;;;;;;;3.27;2.03;;;;;;;;;;5013005;28;20205;-50
2023/01/28 06:20:42;;;;;;;3.00;2.10;;;;;;;;;;5012702;28;20789;-51
2023/01/28 06:23:08;;;;;;;3.20;2.37;;;;;;;;;;5012915;28;20304;-51
2023/01/28 06:25:34;;;;;;;4.10;2.20;;;;;;;;;;5012564;28;20447;-51
2023/01/28 06:28:00;;;;;;;2.87;1.90;;;;;;;;;;5012805;28;20441;-51
2023/01/28 06:30:26;;;;;;;4.33;2.10;;;;;;;;;;5012897;28;20260;-51
2023/01/28 06:32:55;;;;;;;2.53;1.97;;;;;;;;;;5012697;28;20627;-51
2023/01/28 06:35:21;;;;;;;3.10;2.07;;;;;;;;;;5012447;28;20937;-51
2023/01/28 06:37:49;;;;;;;3.97;2.40;;;;;;;;;;5012417;28;20440;-51
2023/01/28 06:40:15;;;;;;;3.13;2.20;;;;;;;;;;5012468;28;20499;-51
2023/01/28 06:42:41;;;;;;;4.33;2.10;;;;;;;;;;5012234;28;20496;-51
2023/01/28 06:45:07;;;;;;;3.90;2.07;;;;;;;;;;5012438;28;20495;-51
2023/01/28 06:47:33;;;;;;;2.53;2.30;;;;;;;;;;5011997;28;20894;-52
2023/01/28 06:49:59;;;;;;;3.63;2.00;;;;;;;;;;5012546;28;20433;-51
2023/01/28 06:52:25;;;;;;;2.20;2.00;;;;;;;;;;5012403;28;20255;-51
2023/01/28 06:54:52;;;;;;;5.07;2.10;;;;;;;;;;5012111;28;20208;-51
2023/01/28 06:57:18;;;;;;;5.53;2.17;;;;;;;;;;5012156;28;20208;-51
2023/01/28 06:59:44;;;;;;;2.33;2.13;;;;;;;;;;5011639;28;20850;-52
2023/01/28 07:02:11;;;;;;;3.00;2.30;;;;;;;;;;5012125;28;20268;-51
2023/01/28 07:04:36;;;;;;;2.67;2.37;;;;;;;;;;5012037;28;20208;-51
2023/01/28 07:07:03;;;;;;;2.53;2.23;;;;;;;;;;5012029;28;20437;-51
2023/01/28 07:09:29;;;;;;;4.73;2.50;;;;;;;;;;5012030;28;20614;-51
2023/01/28 07:11:56;;;;;;;2.87;2.47;;;;;;;;;;5012166;28;20479;-51
2023/01/28 07:14:22;;;;;;;3.60;2.50;;;;;;;;;;5011883;28;20205;-51
2023/01/28 07:16:48;;;;;;;3.10;2.80;;;;;;;;;;5011945;28;20868;-51
2023/01/28 07:19:14;;;;;;;3.47;2.63;;;;;;;;;;5012085;28;20995;-51
2023/01/28 07:21:40;;;;;;;2.80;2.50;;;;;;;;;;5011771;28;20217;-51
2023/01/28 07:24:06;;;;;;;3.03;2.67;;;;;;;;;;5012021;28;20833;-51
2023/01/28 07:26:32;;;;;;;5.07;2.80;;;;;;;;;;5011768;28;20201;-51
2023/01/28 07:28:59;;;;;;;4.50;2.47;;;;;;;;;;5011931;28;20444;-50
2023/01/28 07:31:25;;;;;;;4.27;2.50;;;;;;;;;;5011772;28;20411;-50
2023/01/28 07:33:51;;;;;;;6.00;2.80;;;;;;;;;;5011769;28;20802;-50
2023/01/28 07:36:17;;;;;;;3.03;2.30;;;;;;;;;;5011765;28;20193;-51
2023/01/28 07:38:43;;;;;;;4.90;2.73;;;;;;;;;;5011808;28;20686;-50
2023/01/28 07:41:09;;;;;;;3.53;2.60;;;;;;;;;;5011430;28;20229;-52
2023/01/28 07:43:35;;;;;;;2.83;2.53;;;;;;;;;;5011634;28;20220;-51
2023/01/28 07:46:02;;;;;;;4.23;3.33;;;;;;;;;;5009711;28;20515;-51
2023/01/28 07:48:28;;;;;;;10.33;6.60;;;;;;;;;;5011745;28;20296;-51
2023/01/28 07:50:58;;;;;;;8.93;5.97;;;;;;;;;;5011803;28;20477;-52
2023/01/28 07:53:24;;;;;;;3.97;3.57;;;;;;;;;;5011767;28;20429;-51
2023/01/28 07:55:50;;;;;;;3.20;2.70;;;;;;;;;;5011516;28;20441;-51
2023/01/28 07:58:16;;;;;;;3.27;2.73;;;;;;;;;;5011817;28;20668;-50
2023/01/28 08:00:42;;;;;;;3.00;2.67;;;;;;;;;;5011400;28;20435;-50
2023/01/28 08:03:13;;;;;;;3.57;2.77;;;;;;;;;;5011583;28;20344;-50
2023/01/28 08:05:40;;;;;;;3.03;2.73;;;;;;;;;;5011507;28;20454;-50
2023/01/28 08:08:07;;;;;;;3.47;2.57;;;;;;;;;;5011572;28;20437;-52
2023/01/28 08:10:33;;;;;;;3.23;2.90;;;;;;;;;;5011490;28;20439;-50
2023/01/28 08:12:59;;;;;;;2.97;2.77;;;;;;;;;;5015145;28;20803;-51
2023/01/28 08:15:25;;;;;;;2.70;2.50;;;;;;;;;;5015006;28;20198;-51
2023/01/28 08:17:53;;;;;;;4.43;2.53;;;;;;;;;;5014984;28;20539;-51
2023/01/28 08:20:20;;;;;;;3.70;2.60;;;;;;;;;;5015115;28;20491;-50
2023/01/28 08:22:46;;;;;;;2.50;2.30;;;;;;;;;;5014909;28;20842;-51
2023/01/28 08:25:12;;;;;;;3.40;2.23;;;;;;;;;;5014944;28;20809;-51
2023/01/28 08:27:38;;;;;;;3.73;2.97;;;;;;;;;;5015040;28;20488;-50
2023/01/28 08:30:05;;;;;;;3.13;2.83;;;;;;;;;;5014802;28;20456;-48
2023/01/28 08:32:31;;;;;;;3.70;3.03;;;;;;;;;;5014667;28;20562;-48
2023/01/28 08:34:57;;;;;;;3.70;2.63;;;;;;;;;;5015085;28;20428;-49
2023/01/28 08:37:25;;;;;;;4.43;2.50;;;;;;;;;;5014731;28;20487;-48
2023/01/28 08:39:51;;;;;;;2.90;2.70;;;;;;;;;;5014436;28;20440;-49
2023/01/28 08:42:17;;;;;;;2.93;2.67;;;;;;;;;;5014687;28;20520;-49
2023/01/28 08:44:43;;;;;;;3.10;2.80;;;;;;;;;;5014847;28;20201;-49
2023/01/28 08:47:08;;;;;;;4.13;2.73;;;;;;;;;;5014440;28;21020;-49
2023/01/28 08:49:34;;;;;;;3.13;2.83;;;;;;;;;;5014474;28;20491;-48
2023/01/28 08:52:00;;;;;;;3.10;2.90;;;;;;;;;;5014754;28;20198;-48
2023/01/28 08:54:28;;;;;;;3.67;3.27;;;;;;;;;;5014524;28;20201;-47
2023/01/28 08:56:54;;;;;;;3.33;3.03;;;;;;;;;;5014436;28;20205;-48
2023/01/28 08:59:20;;;;;;;3.20;3.00;;;;;;;;;;5014310;28;20447;-48
2023/01/28 09:01:46;;;;;;;4.40;3.70;;;;;;;;;;5014166;28;20233;-49
2023/01/28 09:04:12;;;;;;;3.83;3.43;;;;;;;;;;5014398;28;20536;-49
2023/01/28 09:06:38;;;;;;;4.07;3.40;;;;;;;;;;5014241;28;20213;-49
2023/01/28 09:09:04;;;;;;;4.53;4.13;;;;;;;;;;5014180;28;20444;-50
2023/01/28 09:11:31;;;;;;;5.33;4.80;;;;;;;;;;5014381;28;20204;-49
2023/01/28 09:13:57;;;;;;;5.97;5.47;;;;;;;;;;5014172;28;20939;-49
2023/01/28 09:16:24;;;;;;;5.67;5.13;;;;;;;;;;5006193;28;20445;-49
2023/01/28 09:18:50;;;;;;;5.90;5.40;;;;;;;;;;4994405;28;20453;-49
2023/01/28 09:21:16;;;;;;;5.53;5.07;;;;;;;;;;4994496;28;20567;-49
2023/01/28 09:23:43;;;;;;;5.73;5.23;;;;;;;;;;4994026;28;20441;-50
2023/01/28 09:26:09;;;;;;;6.00;5.50;;;;;;;;;;4994304;28;20445;-48
2023/01/28 09:28:37;;;;;;;6.20;5.23;;;;;;;;;;4994168;28;20446;-49
2023/01/28 09:31:03;;;;;;;6.03;4.50;;;;;;;;;;4994230;28;20293;-50
2023/01/28 09:33:29;;;;;;;4.47;4.07;;;;;;;;;;4994437;28;20460;-50
2023/01/28 09:35:55;;;;;;;4.10;3.70;;;;;;;;;;4994184;28;20442;-50
2023/01/28 09:38:21;;;;;;;4.07;3.67;;;;;;;;;;4994418;28;20842;-50
2023/01/28 09:40:47;;;;;;;6.00;3.90;;;;;;;;;;4993756;28;20229;-50
2023/01/28 09:43:31;;;;;;;5.67;3.70;;;;;;;;;;4994138;28;20206;-49
2023/01/28 09:46:01;;;;;;;3.90;3.40;;;;;;;;;;4999624;28;20472;-49
2023/01/28 09:48:31;;;;;;;4.10;3.20;;;;;;;;;;5013545;28;20555;-49
2023/01/28 09:50:58;;;;;;;3.70;3.40;;;;;;;;;;5013571;28;20440;-49
2023/01/28 09:53:25;;;;;;;4.10;3.70;;;;;;;;;;5013377;28;20440;-49
2023/01/28 09:55:54;;;;;;;5.73;3.90;;;;;;;;;;5013377;28;20468;-50
2023/01/28 09:58:20;;;;;;;4.40;4.00;;;;;;;;;;5013362;28;20793;-49
2023/01/28 10:00:51;;;;;;;4.47;4.00;;;;;;;;;;5013366;28;20803;-49
2023/01/28 10:03:25;;;;;;;5.37;3.83;;;;;;;;;;5013280;28;20476;-49
2023/01/28 10:05:54;;;;;;;6.97;3.43;;;;;;;;;;5013075;28;20458;-50
2023/01/28 10:08:25;;;;;;;3.20;3.00;;;;;;;;;;5013039;28;20721;-50
2023/01/28 10:10:56;;;;;;;4.90;3.00;;;;;;;;;;5012950;28;20284;-48
2023/01/28 10:13:27;;;;;;;3.17;2.80;;;;;;;;;;5013282;28;20204;-49
2023/01/28 10:16:00;;;;;;;5.03;3.57;;;;;;;;;;5013055;28;20208;-49
2023/01/28 10:18:33;;;;;;;3.93;2.90;;;;;;;;;;5012879;28;20774;-50
2023/01/28 10:21:02;;;;;;;3.77;3.20;;;;;;;;;;5012937;28;20198;-48
2023/01/28 10:23:32;;;;;;;3.40;3.10;;;;;;;;;;5012818;28;20208;-48
2023/01/28 10:25:59;;;;;;;4.13;3.23;;;;;;;;;;5012745;28;20560;-48
2023/01/28 10:28:27;;;;;;;4.20;3.30;;;;;;;;;;5012696;28;20566;-48
2023/01/28 10:30:53;;;;;;;3.47;3.17;;;;;;;;;;5012544;28;20209;-50
2023/01/28 10:33:21;;;;;;;3.50;2.77;;;;;;;;;;5012298;28;20198;-49
2023/01/28 10:35:49;;;;;;;4.33;2.80;;;;;;;;;;5012152;28;20198;-53
2023/01/28 10:38:16;;;;;;;4.23;3.80;;;;;;;;;;5012815;28;20209;-52
2023/01/28 10:40:43;;;;;;;2.50;2.30;;;;;;;;;;5012379;28;20221;-52
2023/01/28 10:43:09;;;;;;;2.47;2.27;;;;;;;;;;5012535;28;20616;-51
2023/01/28 10:45:37;;;;;;;2.73;2.50;;;;;;;;;;5012358;28;20287;-52
2023/01/28 10:48:07;;;;;;;3.03;2.73;;;;;;;;;;5012539;28;20202;-51
2023/01/28 10:50:34;;;;;;;4.30;3.10;;;;;;;;;;5012348;28;20201;-53
2023/01/28 10:53:02;;;;;;;3.50;2.80;;;;;;;;;;5012488;28;20221;-51
2023/01/28 10:55:29;;;;;;;3.97;3.00;;;;;;;;;;5012332;28;20201;-50
2023/01/28 10:57:56;;;;;;;3.47;2.90;;;;;;;;;;5012295;28;20275;-50
2023/01/28 11:00:23;;;;;;;3.53;3.20;;;;;;;;;;5012550;28;20241;-50
2023/01/28 11:02:49;;;;;;;3.63;3.03;;;;;;;;;;5011956;28;20225;-52
2023/01/28 11:05:17;;;;;;;4.50;3.47;;;;;;;;;;5012433;28;20196;-51
2023/01/28 11:07:43;;;;;;;3.20;2.90;;;;;;;;;;5012522;28;20228;-51
2023/01/28 11:10:25;;;;;;;3.90;3.50;;;;;;;;;;5012450;28;20201;-51
2023/01/28 11:12:54;;;;;;;3.80;3.20;;;;;;;;;;5010229;28;20292;-51
2023/01/28 11:15:20;;;;;;;3.20;3.00;;;;;;;;;;5011786;28;20204;-51
2023/01/28 11:17:48;;;;;;;4.73;3.50;;;;;;;;;;5011791;28;20296;-52
2023/01/28 11:20:19;;;;;;;3.67;3.37;;;;;;;;;;5011966;28;20267;-52
2023/01/28 11:22:45;;;;;;;3.60;3.30;;;;;;;;;;5011723;28;20259;-51
2023/01/28 11:25:16;;;;;;;4.13;3.43;;;;;;;;;;5011675;28;20607;-52
2023/01/28 11:27:46;;;;;;;4.63;3.87;;;;;;;;;;5011691;28;20216;-51
2023/01/28 11:30:20;;;;;;;3.80;3.50;;;;;;;;;;5011668;28;20664;-51
2023/01/28 11:32:53;;;;;;;4.10;3.80;;;;;;;;;;5011731;28;20284;-52
2023/01/28 11:35:24;;;;;;;4.10;3.70;;;;;;;;;;5011626;28;20208;-51
2023/01/28 11:37:50;;;;;;;4.33;3.93;;;;;;;;;;5011513;28;20265;-51
2023/01/28 11:40:19;;;;;;;3.97;3.67;;;;;;;;;;5011391;28;20232;-50
2023/01/28 11:42:47;;;;;;;4.20;3.90;;;;;;;;;;4994052;28;20224;-51
2023/01/28 11:45:15;;;;;;;5.07;4.53;;;;;;;;;;5012443;28;20201;-50
2023/01/28 11:47:48;;;;;;;4.40;3.93;;;;;;;;;;5015561;28;20205;-52
2023/01/28 11:50:17;;;;;;;4.67;4.03;;;;;;;;;;5015727;28;20201;-51
2023/01/28 11:52:52;;;;;;;5.20;4.17;;;;;;;;;;5015445;28;20193;-50
2023/01/28 11:55:27;;;;;;;5.17;4.67;;;;;;;;;;5015147;28;20541;-49
2023/01/28 11:58:05;;;;;;;5.13;4.63;;;;;;;;;;5015120;28;20200;-51
2023/01/28 12:00:35;;;;;;;4.83;4.43;;;;;;;;;;5015730;28;20259;-51
2023/01/28 12:03:05;;;;;;;4.63;4.23;;;;;;;;;;5015702;28;20248;-51
2023/01/28 12:05:39;;;;;;;5.00;4.30;;;;;;;;;;5015805;28;20296;-53
2023/01/28 12:08:09;;;;;;;5.20;4.33;;;;;;;;;;5015701;28;20543;-52
2023/01/28 12:10:37;;;;;;;4.80;4.10;;;;;;;;;;5015410;28;20202;-50
2023/01/28 12:13:13;;;;;;;5.40;4.33;;;;;;;;;;5015513;28;20193;-50
2023/01/28 12:16:00;;;;;;;5.03;4.30;;;;;;;;;;5015307;28;20205;-51
2023/01/28 12:18:41;;;;;;;4.17;3.77;;;;;;;;;;5015499;28;20268;-53
2023/01/28 12:21:10;;;;;;;5.93;4.57;;;;;;;;;;5012323;28;20881;-52
2023/01/28 12:23:44;;;;;;;4.20;3.70;;;;;;;;;;5015132;28;20288;-52
2023/01/28 12:26:12;;;;;;;4.63;3.80;;;;;;;;;;5015282;28;20181;-52
2023/01/28 12:28:45;;;;;;;4.43;3.50;;;;;;;;;;5015025;28;20194;-50
2023/01/28 12:31:26;;;;;;;5.43;4.63;;;;;;;;;;5015248;28;20235;-50
2023/01/28 12:34:04;;;;;;;4.77;4.17;;;;;;;;;;5015097;28;20279;-50
2023/01/28 12:36:38;;;;;;;5.10;4.43;;;;;;;;;;5015162;28;20197;-50
2023/01/28 12:39:10;;;;;;;4.70;4.13;;;;;;;;;;5015103;28;20201;-52
2023/01/28 12:41:40;;;;;;;6.07;5.17;;;;;;;;;;5015036;28;20228;-50
2023/01/28 12:44:09;;;;;;;5.17;4.60;;;;;;;;;;5015009;28;20206;-51
2023/01/28 12:46:39;;;;;;;5.10;4.60;;;;;;;;;;5014690;28;20304;-51
2023/01/28 12:49:08;;;;;;;6.87;4.90;;;;;;;;;;5014914;28;20197;-52
2023/01/28 12:51:36;;;;;;;5.53;4.80;;;;;;;;;;5014674;28;20193;-50
2023/01/28 12:54:05;;;;;;;5.97;5.30;;;;;;;;;;5015054;28;20202;-50
2023/01/28 12:56:33;;;;;;;5.47;4.57;;;;;;;;;;5014148;28;20206;-52
2023/01/28 12:59:01;;;;;;;5.47;4.17;;;;;;;;;;5014589;28;20668;-51
2023/01/28 13:01:32;;;;;;;4.73;4.33;;;;;;;;;;5014595;28;20264;-51
2023/01/28 13:04:02;;;;;;;5.13;4.43;;;;;;;;;;5014666;28;20213;-51
2023/01/28 13:06:31;;;;;;;8.33;5.20;;;;;;;;;;5014698;28;20228;-50
2023/01/28 13:09:03;;;;;;;5.77;4.70;;;;;;;;;;5014424;28;20237;-51
2023/01/28 13:11:32;;;;;;;4.53;4.13;;;;;;;;;;5014329;28;20682;-50
2023/01/28 13:13:58;;;;;;;4.93;4.43;;;;;;;;;;5014166;28;20237;-50
2023/01/28 13:16:24;;;;;;;5.10;4.53;;;;;;;;;;5014169;28;20197;-50
2023/01/28 13:18:51;;;;;;;5.93;5.40;;;;;;;;;;5014029;28;20672;-51
2023/01/28 13:21:29;;;;;;;8.47;5.00;;;;;;;;;;5014078;28;20209;-51
2023/01/28 13:24:03;;;;;;;5.77;4.93;;;;;;;;;;5014146;28;20642;-50
2023/01/28 13:26:36;;;;;;;5.57;5.03;;;;;;;;;;4996501;28;20268;-50
2023/01/28 13:29:16;;;;;;;6.83;5.53;;;;;;;;;;5014242;28;20214;-50
2023/01/28 13:31:44;;;;;;;6.83;5.00;;;;;;;;;;5013943;28;20231;-50
2023/01/28 13:34:26;;;;;;;6.43;5.37;;;;;;;;;;5013891;28;20255;-49
2023/01/28 13:36:52;;;;;;;5.80;5.30;;;;;;;;;;5013943;28;20380;-50
2023/01/28 13:39:20;;;;;;;7.40;5.90;;;;;;;;;;5013566;28;20640;-50
2023/01/28 13:41:47;;;;;;;7.40;6.70;;;;;;;;;;5013595;28;20679;-50
2023/01/28 13:44:17;;;;;;;7.57;6.87;;;;;;;;;;5013733;28;20256;-50
2023/01/28 13:46:43;;;;;;;7.37;6.67;;;;;;;;;;5013448;28;20484;-49
2023/01/28 13:49:12;;;;;;;7.37;6.07;;;;;;;;;;5013738;28;20447;-50
2023/01/28 13:51:40;;;;;;;7.73;5.73;;;;;;;;;;5013542;28;20193;-49
2023/01/28 13:54:07;;;;;;;6.40;5.77;;;;;;;;;;5013612;28;20447;-49
2023/01/28 13:56:38;;;;;;;7.93;6.70;;;;;;;;;;5013401;28;20468;-50
2023/01/28 13:59:31;;;;;;;7.30;6.37;;;;;;;;;;5013633;28;20443;-50
2023/01/28 14:02:04;;;;;;;7.23;6.53;;;;;;;;;;5013271;28;20479;-50
2023/01/28 14:04:40;;;;;;;8.47;6.87;;;;;;;;;;5013550;28;20806;-50
2023/01/28 14:07:16;;;;;;;8.40;6.73;;;;;;;;;;5013483;28;20487;-52
2023/01/28 14:09:47;;;;;;;7.77;7.07;;;;;;;;;;5009979;28;20440;-51
2023/01/28 14:12:28;;;;;;;8.63;7.70;;;;;;;;;;5012736;28;20503;-52
2023/01/28 14:15:06;;;;;;;7.77;6.97;;;;;;;;;;5010445;28;20457;-52
2023/01/28 14:17:35;;;;;;;8.23;6.40;;;;;;;;;;5012747;28;20483;-50
2023/01/28 14:20:02;;;;;;;7.40;6.13;;;;;;;;;;5012937;28;20448;-51
2023/01/28 14:22:30;;;;;;;8.10;6.87;;;;;;;;;;5012825;28;20476;-51
2023/01/28 14:24:57;;;;;;;7.83;7.03;;;;;;;;;;5009287;28;20452;-50
2023/01/28 14:27:26;;;;;;;7.67;6.90;;;;;;;;;;4993087;28;20839;-51
2023/01/28 14:30:00;;;;;;;7.63;6.90;;;;;;;;;;4992931;28;20508;-51
2023/01/28 14:32:28;;;;;;;8.07;6.53;;;;;;;;;;4993189;28;20441;-52
2023/01/28 14:34:55;;;;;;;6.93;6.17;;;;;;;;;;4993011;28;20433;-52
2023/01/28 14:37:23;;;;;;;8.00;7.20;;;;;;;;;;4992879;28;20924;-52
2023/01/28 14:39:52;;;;;;;8.13;7.33;;;;;;;;;;4992680;28;20437;-52
2023/01/28 14:42:20;;;;;;;7.30;6.60;;;;;;;;;;4992679;28;20521;-52
2023/01/28 14:44:47;;;;;;;9.10;7.47;;;;;;;;;;4992512;28;20433;-51
2023/01/28 14:47:29;;;;;;;8.70;7.90;;;;;;;;;;4992727;28;20495;-52
2023/01/28 14:50:07;;;;;;;8.80;7.57;;;;;;;;;;4992825;28;20433;-51
2023/01/28 14:52:42;;;;;;;9.37;8.10;;;;;;;;;;4992692;28;20457;-53
2023/01/28 14:55:18;;;;;;;9.07;7.87;;;;;;;;;;4992645;28;20528;-52
2023/01/28 14:57:48;;;;;;;8.80;7.90;;;;;;;;;;4992452;28;20863;-52
2023/01/28 15:00:19;;;;;;;8.77;7.87;;;;;;;;;;4992538;28;20519;-52
2023/01/28 15:02:45;;;;;;;8.40;7.60;;;;;;;;;;4990854;28;20485;-51
2023/01/28 15:05:15;;;;;;;9.17;8.20;;;;;;;;;;4992714;28;20434;-51
2023/01/28 15:07:43;;;;;;;8.10;7.40;;;;;;;;;;4992592;28;20273;-52
2023/01/28 15:10:14;;;;;;;8.90;7.90;;;;;;;;;;4992537;28;20437;-51
2023/01/28 15:12:41;;;;;;;10.77;8.17;;;;;;;;;;4992324;28;20488;-52
2023/01/28 15:15:08;;;;;;;14.50;13.10;;;;;;;;;;4992161;28;20485;-55
2023/01/28 15:17:34;;;;;;;12.10;10.97;;;;;;;;;;4990223;28;20962;-51
2023/01/28 15:20:00;;;;;;;13.03;11.87;;;;;;;;;;4991701;28;20967;-52
2023/01/28 15:22:27;;;;;;;9.67;8.77;;;;;;;;;;4992126;28;20521;-50